createdAt,value
2018-05-11T00:02:33.113Z,3.13
2018-05-11T00:05:31.118Z,3.13
2018-05-11T00:08:28.852Z,3.07
2018-05-11T00:11:26.591Z,2.70
2018-05-11T00:14:24.391Z,3.47
2018-05-11T00:17:22.261Z,3.10
2018-05-11T00:20:19.965Z,3.53
2018-05-11T00:23:17.803Z,3.13
2018-05-11T00:26:15.602Z,3.03
2018-05-11T00:29:13.634Z,3.20
2018-05-11T00:32:11.828Z,3.73
2018-05-11T00:35:09.747Z,3.63
2018-05-11T00:38:07.948Z,2.97
2018-05-11T00:41:05.902Z,3.87
2018-05-11T00:44:03.768Z,3.03
2018-05-11T00:47:01.857Z,3.77
2018-05-11T00:49:59.806Z,3.70
2018-05-11T00:52:57.749Z,3.13
2018-05-11T00:56:03.847Z,3.03
2018-05-11T00:59:01.847Z,3.20
2018-05-11T01:01:59.739Z,3.13
2018-05-11T01:04:57.742Z,3.27
2018-05-11T01:07:55.891Z,2.97
2018-05-11T01:10:54.595Z,3.17
2018-05-11T01:13:52.500Z,4.03
2018-05-11T01:16:50.312Z,3.43
2018-05-11T01:19:47.923Z,3.33
2018-05-11T01:22:45.729Z,3.60
2018-05-11T01:25:43.403Z,3.40
2018-05-11T01:28:41.433Z,3.20
2018-05-11T01:31:39.291Z,3.37
2018-05-11T01:34:37.112Z,3.13
2018-05-11T01:37:34.810Z,3.87
2018-05-11T01:40:32.484Z,3.30
2018-05-11T01:43:30.640Z,3.30
2018-05-11T01:46:28.699Z,3.40
2018-05-11T01:49:26.706Z,3.53
2018-05-11T01:52:24.787Z,3.77
2018-05-11T01:55:21.878Z,3.70
2018-05-11T01:58:19.725Z,3.83
2018-05-11T02:01:17.637Z,3.40
2018-05-11T02:04:14.660Z,3.53
2018-05-11T02:07:12.528Z,3.57
2018-05-11T02:10:10.389Z,3.20
2018-05-11T02:13:07.511Z,3.77
2018-05-11T02:16:05.387Z,3.70
2018-05-11T02:19:02.783Z,3.73
2018-05-11T02:22:00.624Z,4.10
2018-05-11T02:24:58.587Z,3.80
2018-05-11T02:27:55.755Z,3.23
2018-05-11T02:30:53.686Z,3.30
2018-05-11T02:33:51.538Z,3.77
2018-05-11T02:36:49.552Z,3.83
2018-05-11T02:39:46.826Z,3.33
2018-05-11T02:42:44.790Z,3.57
2018-05-11T02:45:42.404Z,3.70
2018-05-11T02:48:40.279Z,3.37
2018-05-11T02:51:38.194Z,3.60
2018-05-11T02:54:36.077Z,3.73
2018-05-11T02:57:33.827Z,3.67
2018-05-11T03:00:31.261Z,3.50
2018-05-11T03:03:29.580Z,3.47
2018-05-11T03:06:27.517Z,3.40
2018-05-11T03:09:25.179Z,3.77
2018-05-11T03:12:22.453Z,3.20
2018-05-11T03:15:20.404Z,3.70
2018-05-11T03:18:18.393Z,3.90
2018-05-11T03:21:16.128Z,3.73
2018-05-11T03:24:14.153Z,4.23
2018-05-11T03:27:13.139Z,3.97
2018-05-11T03:30:11.014Z,3.63
2018-05-11T03:33:08.147Z,3.20
2018-05-11T03:36:06.226Z,4.50
2018-05-11T03:39:04.194Z,4.03
2018-05-11T03:42:01.344Z,4.17
2018-05-11T03:44:59.222Z,3.33
2018-05-11T03:47:57.267Z,4.07
2018-05-11T03:50:55.237Z,3.80
2018-05-11T03:53:53.332Z,3.73
2018-05-11T03:56:51.941Z,3.33
2018-05-11T03:59:49.895Z,3.97
2018-05-11T04:02:59.583Z,4.10
2018-05-11T04:06:09.575Z,3.70
2018-05-11T04:09:15.520Z,3.97
2018-05-11T04:12:13.424Z,3.43
2018-05-11T04:15:11.641Z,3.50
2018-05-11T04:18:08.782Z,3.40
2018-05-11T04:21:06.163Z,3.23
2018-05-11T04:24:04.127Z,3.60
2018-05-11T04:27:02.185Z,3.70
2018-05-11T04:30:00.084Z,3.70
2018-05-11T04:32:58.034Z,4.10
2018-05-11T04:35:55.153Z,3.73
2018-05-11T04:38:52.190Z,4.10
2018-05-11T04:41:49.758Z,3.47
2018-05-11T04:44:47.555Z,3.20
2018-05-11T04:47:45.347Z,3.40
2018-05-11T04:50:42.642Z,3.47
2018-05-11T04:53:40.523Z,3.30
2018-05-11T04:56:38.245Z,3.77
2018-05-11T04:59:36.210Z,3.60
2018-05-11T05:02:34.035Z,4.33
2018-05-11T05:05:31.974Z,3.60
2018-05-11T05:08:29.817Z,3.63
2018-05-11T05:11:27.716Z,4.10
2018-05-11T05:14:25.930Z,3.77
2018-05-11T05:17:23.974Z,4.03
2018-05-11T05:20:21.799Z,4.00
2018-05-11T05:23:19.732Z,4.07
2018-05-11T05:26:16.837Z,3.93
2018-05-11T05:29:14.850Z,4.00
2018-05-11T05:32:12.802Z,3.80
2018-05-11T05:35:10.088Z,3.90
2018-05-11T05:38:10.497Z,3.37
2018-05-11T05:41:09.090Z,3.43
2018-05-11T05:44:07.339Z,3.47
2018-05-11T05:47:04.798Z,3.40
2018-05-11T05:50:02.682Z,3.93
2018-05-11T05:52:59.753Z,3.73
2018-05-11T05:55:57.705Z,3.50
2018-05-11T05:58:55.484Z,4.00
2018-05-11T06:01:53.428Z,3.40
2018-05-11T06:04:51.539Z,3.40
2018-05-11T06:07:49.015Z,3.80
2018-05-11T06:10:46.129Z,3.53
2018-05-11T06:13:43.403Z,3.63
2018-05-11T06:16:40.463Z,4.03
2018-05-11T06:19:38.488Z,3.67
2018-05-11T06:22:35.871Z,3.73
2018-05-11T06:25:33.884Z,4.10
2018-05-11T06:28:31.839Z,3.80
2018-05-11T06:31:28.855Z,3.83
2018-05-11T06:34:26.066Z,4.50
2018-05-11T06:37:24.175Z,4.37
2018-05-11T06:40:22.192Z,3.80
2018-05-11T06:43:20.015Z,3.90
2018-05-11T06:46:17.804Z,4.67
2018-05-11T06:49:16.488Z,4.77
2018-05-11T06:52:13.630Z,4.10
2018-05-11T06:55:10.687Z,4.53
2018-05-11T06:58:08.759Z,3.87
2018-05-11T07:01:06.855Z,3.40
2018-05-11T07:04:04.872Z,4.27
2018-05-11T07:07:02.731Z,3.93
2018-05-11T07:09:59.881Z,4.13
2018-05-11T07:12:57.682Z,4.10
2018-05-11T07:15:55.628Z,4.00
2018-05-11T07:18:53.241Z,3.90
2018-05-11T07:21:51.286Z,4.73
2018-05-11T07:24:49.243Z,4.10
2018-05-11T07:27:47.186Z,4.10
2018-05-11T07:30:45.071Z,3.97
2018-05-11T07:33:42.775Z,3.87
2018-05-11T07:36:40.774Z,4.30
2018-05-11T07:39:37.958Z,4.10
2018-05-11T07:42:35.803Z,3.83
2018-05-11T07:45:33.021Z,4.60
2018-05-11T07:48:30.796Z,4.50
2018-05-11T07:51:28.837Z,4.10
2018-05-11T07:54:26.655Z,4.40
2018-05-11T07:57:24.636Z,3.90
2018-05-11T08:00:22.444Z,4.60
2018-05-11T08:03:19.671Z,4.63
2018-05-11T08:06:17.562Z,4.23
2018-05-11T08:09:15.593Z,3.83
2018-05-11T08:12:13.535Z,4.87
2018-05-11T08:15:11.605Z,4.40
2018-05-11T08:18:09.417Z,3.90
2018-05-11T08:21:07.359Z,4.70
2018-05-11T08:24:06.049Z,4.73
2018-05-11T08:27:03.474Z,4.47
2018-05-11T08:30:00.697Z,4.70
2018-05-11T08:32:57.876Z,4.50
2018-05-11T08:35:55.002Z,4.97
2018-05-11T08:38:53.040Z,4.87
2018-05-11T08:41:52.040Z,4.33
2018-05-11T08:44:50.089Z,4.27
2018-05-11T08:47:48.008Z,5.57
2018-05-11T08:50:45.900Z,4.67
2018-05-11T08:53:43.878Z,4.17
2018-05-11T08:56:40.925Z,4.10
2018-05-11T08:59:38.005Z,4.70
2018-05-11T09:02:35.906Z,5.30
2018-05-11T09:05:33.950Z,4.70
2018-05-11T09:08:33.027Z,4.67
2018-05-11T09:11:30.368Z,4.60
2018-05-11T09:14:28.217Z,5.50
2018-05-11T09:17:25.365Z,8.20
2018-05-11T09:20:23.321Z,4.70
2018-05-11T09:23:21.378Z,4.80
2018-05-11T09:26:19.071Z,4.83
2018-05-11T09:29:16.942Z,4.80
2018-05-11T09:32:14.863Z,5.63
2018-05-11T09:35:12.777Z,4.93
2018-05-11T09:38:10.105Z,4.20
2018-05-11T09:41:07.939Z,5.03
2018-05-11T09:44:04.974Z,4.30
2018-05-11T09:47:02.188Z,4.62
2018-05-11T09:50:00.004Z,5.00
2018-05-11T09:52:57.950Z,6.12
2018-05-11T09:55:55.796Z,4.87
2018-05-11T09:58:52.981Z,5.00
2018-05-11T10:01:50.789Z,4.97
2018-05-11T10:04:49.599Z,5.03
2018-05-11T10:07:46.677Z,4.93
2018-05-11T10:10:44.505Z,4.77
2018-05-11T10:13:43.404Z,4.83
2018-05-11T10:16:41.213Z,4.73
2018-05-11T10:19:39.100Z,5.03
2018-05-11T10:22:36.960Z,4.50
2018-05-11T10:25:34.647Z,5.07
2018-05-11T10:28:32.570Z,4.67
2018-05-11T10:31:30.571Z,5.47
2018-05-11T10:34:28.544Z,5.43
2018-05-11T10:37:26.280Z,4.62
2018-05-11T10:40:24.117Z,5.30
2018-05-11T10:43:22.129Z,5.87
2018-05-11T10:46:20.008Z,7.90
2018-05-11T10:49:18.818Z,4.90
2018-05-11T10:52:16.824Z,4.70
2018-05-11T10:55:14.438Z,4.73
2018-05-11T10:58:12.270Z,4.47
2018-05-11T11:01:10.233Z,5.20
2018-05-11T11:04:08.273Z,5.00
2018-05-11T11:07:06.024Z,5.00
2018-05-11T11:10:03.893Z,5.10
2018-05-11T11:13:01.864Z,4.50
2018-05-11T11:15:59.736Z,4.87
2018-05-11T11:18:57.521Z,4.77
2018-05-11T11:21:55.594Z,4.53
2018-05-11T11:24:53.407Z,4.80
2018-05-11T11:27:51.253Z,5.10
2018-05-11T11:30:48.163Z,5.00
2018-05-11T11:33:46.078Z,4.33
2018-05-11T11:36:44.087Z,5.83
2018-05-11T11:39:41.914Z,5.50
2018-05-11T11:42:39.200Z,5.03
2018-05-11T11:45:36.966Z,5.47
2018-05-11T11:48:34.857Z,5.60
2018-05-11T11:51:32.101Z,5.00
2018-05-11T11:54:29.984Z,6.37
2018-05-11T11:57:27.811Z,6.83
2018-05-11T12:00:25.707Z,4.30
2018-05-11T12:03:23.646Z,4.90
2018-05-11T12:06:22.248Z,4.50
2018-05-11T12:09:19.266Z,5.43
2018-05-11T12:12:17.158Z,5.53
2018-05-11T12:15:15.484Z,4.57
2018-05-11T12:18:12.513Z,4.07
2018-05-11T12:21:09.598Z,5.07
2018-05-11T12:24:07.581Z,4.80
2018-05-11T12:27:05.324Z,5.03
2018-05-11T12:30:02.935Z,4.53
2018-05-11T12:33:00.729Z,5.90
2018-05-11T12:35:57.919Z,5.80
2018-05-11T12:38:55.706Z,4.50
2018-05-11T12:41:53.707Z,5.67
2018-05-11T12:44:51.519Z,4.87
2018-05-11T12:47:49.430Z,5.33
2018-05-11T12:50:47.483Z,6.53
2018-05-11T12:53:45.316Z,4.70
2018-05-11T12:56:43.183Z,6.40
2018-05-11T12:59:41.176Z,5.30
2018-05-11T13:02:38.991Z,6.23
2018-05-11T13:05:36.912Z,5.33
2018-05-11T13:08:34.799Z,5.07
2018-05-11T13:11:32.773Z,4.83
2018-05-11T13:14:30.715Z,4.80
2018-05-11T13:17:28.844Z,6.80
2018-05-11T13:20:26.911Z,5.43
2018-05-11T13:23:24.903Z,6.60
2018-05-11T13:26:23.041Z,6.43
2018-05-11T13:29:21.025Z,5.37
2018-05-11T13:32:18.965Z,5.33
2018-05-11T13:35:17.069Z,5.13
2018-05-11T13:38:14.897Z,5.00
2018-05-11T13:41:12.998Z,4.87
2018-05-11T13:44:10.881Z,5.53
2018-05-11T13:47:08.776Z,5.27
2018-05-11T13:50:06.900Z,5.10
2018-05-11T13:53:04.841Z,4.77
2018-05-11T13:56:02.855Z,5.50
2018-05-11T13:59:00.840Z,4.63
2018-05-11T14:01:59.063Z,5.20
2018-05-11T14:04:56.497Z,5.27
2018-05-11T14:07:54.556Z,5.40
2018-05-11T14:10:52.492Z,5.23
2018-05-11T14:13:50.350Z,5.10
2018-05-11T14:16:47.401Z,5.53
2018-05-11T14:19:44.845Z,4.87
2018-05-11T14:22:41.880Z,5.40
2018-05-11T14:25:39.065Z,5.40
2018-05-11T14:28:36.856Z,5.17
2018-05-11T14:31:34.861Z,5.57
2018-05-11T14:34:31.973Z,6.33
2018-05-11T14:37:30.170Z,5.63
2018-05-11T14:40:28.169Z,4.93
2018-05-11T14:43:26.146Z,5.53
2018-05-11T14:46:24.020Z,5.10
2018-05-11T14:49:21.342Z,5.63
2018-05-11T14:52:19.293Z,6.33
2018-05-11T14:55:18.272Z,5.83
2018-05-11T14:58:16.068Z,5.13
2018-05-11T15:01:13.977Z,5.70
2018-05-11T15:04:13.124Z,6.30
2018-05-11T15:07:11.297Z,6.10
2018-05-11T15:10:09.084Z,4.97
2018-05-11T15:13:06.932Z,5.20
2018-05-11T15:16:05.176Z,5.10
2018-05-11T15:19:02.979Z,4.97
2018-05-11T15:22:00.623Z,5.97
2018-05-11T15:24:58.329Z,4.63
2018-05-11T15:27:56.194Z,6.47
2018-05-11T15:30:54.087Z,5.17
2018-05-11T15:33:52.222Z,6.00
2018-05-11T15:36:50.071Z,5.50
2018-05-11T15:39:47.947Z,5.30
2018-05-11T15:42:45.728Z,8.80
2018-05-11T15:45:43.682Z,7.57
2018-05-11T15:48:40.925Z,7.10
2018-05-11T15:51:37.979Z,5.97
2018-05-11T15:54:35.976Z,5.70
2018-05-11T15:57:33.866Z,6.13
2018-05-11T16:00:31.795Z,5.47
2018-05-11T16:03:29.623Z,6.03
2018-05-11T16:06:26.764Z,6.63
2018-05-11T16:09:23.824Z,6.03
2018-05-11T16:12:21.720Z,6.90
2018-05-11T16:15:18.789Z,5.50
2018-05-11T16:18:16.804Z,6.40
2018-05-11T16:21:13.816Z,5.50
2018-05-11T16:24:10.828Z,6.60
2018-05-11T16:27:08.868Z,7.67
2018-05-11T16:30:06.048Z,8.43
2018-05-11T16:33:03.877Z,6.00
2018-05-11T16:36:00.958Z,8.40
2018-05-11T16:38:58.820Z,7.47
2018-05-11T16:41:56.591Z,6.10
2018-05-11T16:44:54.411Z,6.50
2018-05-11T16:47:52.323Z,6.53
2018-05-11T16:50:50.045Z,6.17
2018-05-11T16:53:48.899Z,6.97
2018-05-11T16:56:46.844Z,7.40
2018-05-11T16:59:44.716Z,6.50
2018-05-11T17:02:43.451Z,5.50
2018-05-11T17:05:40.550Z,6.30
2018-05-11T17:08:38.659Z,6.73
2018-05-11T17:11:37.493Z,6.20
2018-05-11T17:14:35.599Z,6.90
2018-05-11T17:17:35.569Z,6.43
2018-05-11T17:20:32.759Z,7.10
2018-05-11T17:23:30.559Z,7.77
2018-05-11T17:26:28.358Z,6.27
2018-05-11T17:29:26.353Z,6.50
2018-05-11T17:32:24.254Z,8.10
2018-05-11T17:35:21.982Z,5.83
2018-05-11T17:38:19.802Z,5.90
2018-05-11T17:41:17.763Z,6.03
2018-05-11T17:44:15.572Z,6.23
2018-05-11T17:47:13.435Z,6.70
2018-05-11T17:50:11.101Z,6.00
2018-05-11T17:53:08.156Z,6.23
2018-05-11T17:56:06.095Z,5.97
2018-05-11T17:59:03.044Z,6.53
2018-05-11T18:02:00.842Z,8.13
2018-05-11T18:04:58.473Z,5.57
2018-05-11T18:07:56.443Z,5.27
2018-05-11T18:10:54.683Z,7.57
2018-05-11T18:13:52.722Z,7.20
2018-05-11T18:16:50.674Z,6.57
2018-05-11T18:19:48.604Z,7.87
2018-05-11T18:22:47.768Z,7.53
2018-05-11T18:25:45.240Z,9.93
2018-05-11T18:28:43.268Z,6.73
2018-05-11T18:31:40.511Z,8.17
2018-05-11T18:34:38.473Z,8.47
2018-05-11T18:37:36.475Z,7.83
2018-05-11T18:40:34.551Z,7.50
2018-05-11T18:43:32.472Z,6.20
2018-05-11T18:46:30.310Z,6.67
2018-05-11T18:49:27.754Z,6.77
2018-05-11T18:52:26.088Z,7.40
2018-05-11T18:55:23.935Z,6.73
2018-05-11T18:58:20.953Z,6.30
2018-05-11T19:01:17.992Z,6.47
2018-05-11T19:04:15.927Z,5.63
2018-05-11T19:07:12.983Z,7.40
2018-05-11T19:10:10.116Z,5.67
2018-05-11T19:13:07.240Z,5.73
2018-05-11T19:16:05.175Z,6.23
2018-05-11T19:19:03.054Z,6.47
2018-05-11T19:22:00.356Z,12.57
2018-05-11T19:24:58.336Z,6.93
2018-05-11T19:27:55.473Z,8.43
2018-05-11T19:30:53.479Z,6.70
2018-05-11T19:33:50.777Z,6.67
2018-05-11T19:36:48.499Z,5.80
2018-05-11T19:39:46.485Z,5.70
2018-05-11T19:42:43.777Z,9.27
2018-05-11T19:45:41.045Z,6.60
2018-05-11T19:48:38.995Z,5.80
2018-05-11T19:51:36.849Z,6.20
2018-05-11T19:54:34.100Z,7.10
2018-05-11T19:57:32.970Z,5.67
2018-05-11T20:00:30.212Z,5.60
2018-05-11T20:03:27.885Z,7.67
2018-05-11T20:06:25.956Z,6.77
2018-05-11T20:09:23.140Z,6.87
2018-05-11T20:12:20.191Z,6.83
2018-05-11T20:15:18.055Z,6.50
2018-05-11T20:18:15.992Z,5.40
2018-05-11T20:21:14.095Z,6.53
2018-05-11T20:24:11.835Z,5.57
2018-05-11T20:27:09.505Z,5.10
2018-05-11T20:30:07.304Z,5.97
2018-05-11T20:33:05.167Z,5.50
2018-05-11T20:36:03.133Z,5.43
2018-05-11T20:39:00.289Z,5.90
2018-05-11T20:41:57.432Z,6.13
2018-05-11T20:44:55.096Z,5.67
2018-05-11T20:47:52.240Z,4.50
2018-05-11T20:50:51.450Z,5.33
2018-05-11T20:53:49.526Z,4.30
2018-05-11T20:56:47.484Z,5.00
2018-05-11T20:59:45.429Z,5.63
2018-05-11T21:02:43.468Z,6.00
2018-05-11T21:05:41.392Z,5.97
2018-05-11T21:08:39.267Z,5.70
2018-05-11T21:11:36.287Z,5.53
2018-05-11T21:14:34.278Z,6.37
2018-05-11T21:17:32.187Z,5.17
2018-05-11T21:20:31.143Z,5.57
2018-05-11T21:23:28.945Z,5.50
2018-05-11T21:26:26.186Z,7.53
2018-05-11T21:29:24.051Z,5.60
2018-05-11T21:32:21.036Z,5.80
2018-05-11T21:35:18.150Z,4.97
2018-05-11T21:38:16.078Z,5.20
2018-05-11T21:41:13.991Z,6.87
2018-05-11T21:44:12.118Z,5.10
2018-05-11T21:47:09.800Z,5.00
2018-05-11T21:50:07.020Z,5.20
2018-05-11T21:53:05.668Z,4.53
2018-05-11T21:56:03.259Z,5.43
2018-05-11T21:59:01.440Z,5.57
2018-05-11T22:02:00.133Z,5.73
2018-05-11T22:04:57.308Z,5.77
2018-05-11T22:07:55.193Z,5.17
2018-05-11T22:10:53.092Z,5.70
2018-05-11T22:13:51.151Z,5.67
2018-05-11T22:16:48.984Z,6.33
2018-05-11T22:19:48.164Z,5.07
2018-05-11T22:22:45.984Z,5.77
2018-05-11T22:25:43.186Z,5.07
2018-05-11T22:28:41.688Z,6.03
2018-05-11T22:31:40.189Z,5.03
2018-05-11T22:34:38.208Z,5.30
2018-05-11T22:37:35.148Z,5.00
2018-05-11T22:40:32.956Z,5.67
2018-05-11T22:43:30.861Z,5.03
2018-05-11T22:46:28.024Z,5.90
2018-05-11T22:49:25.784Z,6.77
2018-05-11T22:52:23.776Z,6.40
2018-05-11T22:55:21.749Z,5.77
2018-05-11T22:58:19.785Z,5.70
2018-05-11T23:01:16.824Z,6.00
2018-05-11T23:04:14.761Z,5.40
2018-05-11T23:07:13.736Z,5.53
2018-05-11T23:10:11.891Z,5.87
2018-05-11T23:13:10.004Z,5.47
2018-05-11T23:16:07.942Z,5.57
2018-05-11T23:19:05.601Z,5.60
2018-05-11T23:22:03.738Z,5.27
2018-05-11T23:25:01.906Z,5.97
2018-05-11T23:27:58.944Z,5.83
2018-05-11T23:30:56.103Z,5.30
2018-05-11T23:33:55.067Z,5.70
2018-05-11T23:36:52.930Z,5.70
2018-05-11T23:39:50.896Z,6.00
2018-05-11T23:42:47.893Z,5.33
2018-05-11T23:45:51.861Z,5.73
2018-05-11T23:48:49.951Z,5.77
2018-05-11T23:51:47.785Z,5.70
2018-05-11T23:54:45.556Z,5.63
2018-05-11T23:57:44.340Z,5.67
